Time;durP1;ratioP1;P1;durP2;ratioP2;P2;SDS_P1;SDS_P2;PMS_P1;PMS_P2;Temp;Humidity;BMP_temperature;BMP_pressure;BME280_temperature;BME280_humidity;BME280_pressure;Samples;Min_cycle;Max_cycle;Signal;HPM_P1;HPM_P2
2022/08/16 00:02:06;;;;;;;11.88;5.63;;;;;;;22.94;41.54;100418.63;5030821;28;20049;-59
2022/08/16 00:04:32;;;;;;;10.82;5.82;;;;;;;22.90;41.79;100411.81;5030892;28;20054;-59
2022/08/16 00:06:58;;;;;;;14.27;5.60;;;;;;;22.91;41.73;100410.81;5028316;28;20021;-56
2022/08/16 00:09:23;;;;;;;7.50;5.43;;;;;;;23.01;41.45;100422.28;5011936;28;20355;-57
2022/08/16 00:11:50;;;;;;;11.57;5.30;;;;;;;22.98;41.53;100422.66;5012551;28;20029;-57
2022/08/16 00:14:21;;;;;;;7.32;5.60;;;;;;;22.99;41.34;100426.22;5020272;28;20091;-55
2022/08/16 00:16:47;;;;;;;8.88;5.28;;;;;;;23.03;41.20;100425.66;5031285;28;20108;-56
2022/08/16 00:19:20;;;;;;;9.73;5.40;;;;;;;23.03;41.21;100425.66;5031248;28;20090;-59
2022/08/16 00:21:46;;;;;;;8.70;5.50;;;;;;;23.05;41.28;100420.03;5018791;28;20233;-57
2022/08/16 00:24:13;;;;;;;10.05;5.05;;;;;;;22.95;41.58;100423.06;5011033;28;20152;-57
2022/08/16 00:26:40;;;;;;;6.90;5.30;;;;;;;22.97;41.43;100426.44;5011740;28;20034;-56
2022/08/16 00:29:06;;;;;;;10.35;5.45;;;;;;;22.93;41.52;100419.66;5026920;28;20044;-56
2022/08/16 00:31:33;;;;;;;11.43;5.38;;;;;;;22.97;41.71;100426.44;5031681;28;20030;-56
2022/08/16 00:33:59;;;;;;;10.52;5.10;;;;;;;22.99;41.33;100420.75;5031160;28;20609;-57
2022/08/16 00:36:25;;;;;;;14.20;5.32;;;;;;;22.94;41.53;100415.91;5012931;28;20470;-56
2022/08/16 00:38:50;;;;;;;8.55;5.10;;;;;;;22.96;41.47;100419.28;5011657;28;20030;-52
2022/08/16 00:41:17;;;;;;;11.20;5.18;;;;;;;22.92;41.46;100412.50;5023523;28;20064;-54
2022/08/16 00:43:43;;;;;;;9.57;5.18;;;;;;;22.94;41.57;100422.19;4993316;28;20421;-54
2022/08/16 00:46:18;;;;;;;8.05;5.00;;;;;;;22.98;41.36;100419.94;5011408;28;20112;-57
2022/08/16 00:48:44;;;;;;;11.23;5.07;;;;;;;22.92;41.40;100423.44;5023367;28;20082;-56
2022/08/16 00:51:11;;;;;;;8.57;5.18;;;;;;;22.82;41.73;100421.00;5031743;28;20088;-57
2022/08/16 00:53:36;;;;;;;8.00;5.03;;;;;;;22.61;41.98;100394.47;5030952;28;20445;-57
2022/08/16 00:56:13;;;;;;;9.27;5.15;;;;;;;22.86;41.86;100424.19;5023946;28;20072;-55
2022/08/16 00:58:45;;;;;;;8.40;5.28;;;;;;;22.78;41.95;100428.72;5011850;28;20141;-57
2022/08/16 01:01:12;;;;;;;7.45;4.97;;;;;;;22.64;42.17;100422.22;5011685;28;20030;-66
2022/08/16 01:03:41;;;;;;;8.73;5.15;;;;;;;22.65;42.39;100426.66;5012021;28;20049;-61
2022/08/16 01:06:09;;;;;;;10.88;5.40;;;;;;;22.58;42.62;100416.66;5011306;28;20026;-59
2022/08/16 01:08:36;;;;;;;10.25;4.95;;;;;;;22.64;42.59;100426.81;5011344;28;20088;-56
2022/08/16 01:11:03;;;;;;;8.13;4.93;;;;;;;22.57;42.91;100428.63;5012123;28;20044;-58
2022/08/16 01:13:32;;;;;;;8.30;5.38;;;;;;;22.57;42.94;100436.81;5010608;28;20486;-55
2022/08/16 01:16:02;;;;;;;11.25;5.18;;;;;;;22.55;43.13;100434.28;5015296;28;20075;-58
2022/08/16 01:18:33;;;;;;;8.05;5.13;;;;;;;22.53;42.54;100433.59;5030939;28;20041;-57
2022/08/16 01:21:14;;;;;;;10.55;5.10;;;;;;;22.58;42.88;100433.03;5031075;28;20519;-64
2022/08/16 01:23:58;;;;;;;6.97;5.07;;;;;;;22.69;42.40;100439.91;5028499;28;20359;-53
2022/08/16 01:26:29;;;;;;;6.57;4.60;;;;;;;22.49;42.96;100435.88;5030506;28;20044;-57
2022/08/16 01:28:56;;;;;;;10.90;4.65;;;;;;;22.41;43.37;100435.91;5024814;28;20045;-55
2022/08/16 01:31:24;;;;;;;12.95;5.28;;;;;;;22.39;43.52;100440.72;5010561;28;20068;-57
2022/08/16 01:33:49;;;;;;;6.25;4.55;;;;;;;22.35;43.30;100433.94;5010427;28;20394;-55
2022/08/16 01:36:15;;;;;;;9.35;5.35;;;;;;;22.32;43.82;100440.63;5013922;28;20034;-57
2022/08/16 01:38:43;;;;;;;9.00;5.63;;;;;;;22.42;43.35;100445.78;5014675;28;20039;-57
2022/08/16 01:41:13;;;;;;;9.00;5.47;;;;;;;22.36;43.72;100436.50;5014946;28;20038;-58
2022/08/16 01:43:42;;;;;;;7.95;5.28;;;;;;;22.35;43.84;100437.53;5025730;28;20031;-55
2022/08/16 01:46:20;;;;;;;8.85;5.45;;;;;;;22.42;43.25;100450.41;5034099;28;20033;-56
2022/08/16 01:48:46;;;;;;;10.40;5.30;;;;;;;22.29;43.74;100442.88;5034435;28;20461;-57
2022/08/16 01:51:15;;;;;;;12.45;4.97;;;;;;;22.22;43.77;100442.75;5018515;28;20109;-59
2022/08/16 01:53:41;;;;;;;6.43;5.03;;;;;;;22.20;43.84;100437.50;5014764;28;20179;-60
2022/08/16 01:56:07;;;;;;;8.65;5.70;;;;;;;22.15;43.89;100447.28;5014383;28;20101;-55
2022/08/16 01:58:32;;;;;;;8.13;5.20;;;;;;;22.19;43.98;100446.72;5022470;28;20121;-57
2022/08/16 02:00:58;;;;;;;10.50;5.63;;;;;;;22.13;44.36;100438.44;5014572;28;20406;-57
2022/08/16 02:03:23;;;;;;;10.32;5.50;;;;;;;22.07;44.22;100443.59;5014100;28;20045;-58
2022/08/16 02:05:49;;;;;;;6.28;5.15;;;;;;;22.02;44.43;100445.19;5014857;28;20048;-55
2022/08/16 02:08:14;;;;;;;7.43;4.75;;;;;;;21.99;44.62;100440.09;5014621;28;20033;-65
2022/08/16 02:10:40;;;;;;;8.48;5.68;;;;;;;22.11;44.34;100443.22;5014421;28;20032;-54
2022/08/16 02:13:06;;;;;;;7.75;5.22;;;;;;;22.06;44.30;100447.38;5014075;28;20439;-58
2022/08/16 02:15:34;;;;;;;8.18;5.47;;;;;;;22.06;44.25;100451.94;5031745;28;20065;-59
2022/08/16 02:18:01;;;;;;;12.35;5.63;;;;;;;22.06;44.20;100441.03;5034087;28;20053;-57
2022/08/16 02:20:29;;;;;;;8.93;5.60;;;;;;;22.06;44.18;100452.81;5023389;28;20121;-59
2022/08/16 02:22:56;;;;;;;11.60;5.55;;;;;;;22.04;44.28;100451.28;5013572;28;20076;-57
2022/08/16 02:25:23;;;;;;;8.80;5.65;;;;;;;22.07;44.33;100453.66;5014049;28;20113;-57
2022/08/16 02:27:49;;;;;;;7.70;5.07;;;;;;;22.01;44.66;100448.94;5026417;28;20048;-57
2022/08/16 02:30:20;;;;;;;7.63;5.47;;;;;;;22.11;44.10;100454.13;5033926;28;20034;-57
2022/08/16 02:32:45;;;;;;;7.95;5.38;;;;;;;22.01;44.37;100443.47;5033500;28;20076;-55
2022/08/16 02:35:12;;;;;;;9.02;5.35;;;;;;;22.10;44.28;100447.00;5026266;28;20116;-58
2022/08/16 02:37:38;;;;;;;8.07;5.30;;;;;;;21.99;44.56;100451.00;5013572;28;20111;-60
2022/08/16 02:40:04;;;;;;;9.38;5.20;;;;;;;21.94;44.66;100457.00;5013318;28;20493;-57
2022/08/16 02:42:30;;;;;;;7.03;5.30;;;;;;;21.93;44.65;100447.13;5023112;28;20060;-60
2022/08/16 02:44:55;;;;;;;13.75;5.88;;;;;;;22.03;44.68;100452.31;5033667;28;20423;-56
2022/08/16 02:47:22;;;;;;;13.60;5.70;;;;;;;21.96;44.73;100457.66;5032516;28;20052;-61
2022/08/16 02:49:48;;;;;;;7.00;5.20;;;;;;;21.91;44.72;100455.47;5031018;28;20477;-64
2022/08/16 02:52:15;;;;;;;8.13;5.15;;;;;;;21.97;44.68;100451.16;5033488;28;20184;-59
2022/08/16 02:54:41;;;;;;;6.90;5.57;;;;;;;21.93;44.80;100458.84;5029266;28;20060;-58
2022/08/16 02:57:06;;;;;;;8.88;5.35;;;;;;;22.04;44.63;100451.28;5013576;28;20112;-53
2022/08/16 02:59:32;;;;;;;6.35;5.03;;;;;;;21.97;44.83;100448.44;5013322;28;20063;-57
2022/08/16 03:01:57;;;;;;;12.10;5.25;;;;;;;21.93;44.89;100450.69;5012932;28;20045;-57
2022/08/16 03:04:23;;;;;;;10.20;5.47;;;;;;;21.88;44.50;100444.94;5013442;28;20045;-56
2022/08/16 03:06:50;;;;;;;6.70;5.40;;;;;;;21.97;44.64;100464.81;5013346;28;20100;-62
2022/08/16 03:09:16;;;;;;;8.45;5.60;;;;;;;21.93;44.74;100464.31;5013278;28;20030;-56
2022/08/16 03:11:43;;;;;;;8.73;5.45;;;;;;;21.91;44.94;100466.38;5016432;28;20067;-58
2022/08/16 03:14:10;;;;;;;12.23;5.45;;;;;;;21.84;45.02;100461.88;5033066;28;20041;-55
2022/08/16 03:16:35;;;;;;;8.10;5.55;;;;;;;21.87;45.12;100465.06;5033011;28;20116;-59
2022/08/16 03:19:01;;;;;;;8.32;5.57;;;;;;;21.90;44.88;100467.41;5031635;28;20029;-63
2022/08/16 03:21:27;;;;;;;9.23;5.47;;;;;;;21.92;44.88;100465.34;5032484;28;20021;-59
2022/08/16 03:23:53;;;;;;;9.15;6.20;;;;;;;21.98;44.94;100465.66;5031043;28;20441;-57
2022/08/16 03:26:19;;;;;;;7.70;6.20;;;;;;;22.05;44.52;100466.63;5023547;28;20069;-59
2022/08/16 03:28:44;;;;;;;12.50;5.72;;;;;;;21.96;44.85;100451.38;5012579;28;20363;-58
2022/08/16 03:31:10;;;;;;;10.50;5.80;;;;;;;22.08;44.70;100471.69;5012538;28;20056;-57
2022/08/16 03:33:35;;;;;;;15.00;6.10;;;;;;;22.17;44.45;100480.66;5012354;28;20042;-58
2022/08/16 03:36:02;;;;;;;9.50;5.38;;;;;;;22.28;44.46;100479.38;5030344;28;20076;-58
2022/08/16 03:38:29;;;;;;;8.57;5.93;;;;;;;22.44;43.90;100479.22;5030655;28;20034;-58
2022/08/16 03:40:56;;;;;;;12.32;6.22;;;;;;;22.49;43.70;100468.63;5017844;28;20088;-60
2022/08/16 03:43:23;;;;;;;9.32;5.95;;;;;;;22.55;43.51;100463.44;5012429;28;20065;-60
2022/08/16 03:45:54;;;;;;;10.57;5.80;;;;;;;22.75;43.45;100475.50;5011478;28;20104;-59
2022/08/16 03:48:25;;;;;;;11.32;5.60;;;;;;;23.21;42.58;100476.31;5029304;28;20080;-59
2022/08/16 03:50:51;;;;;;;8.25;5.78;;;;;;;24.33;39.99;100473.22;5031083;28;20044;-68
2022/08/16 03:53:16;;;;;;;9.13;5.38;;;;;;;25.84;36.72;100461.69;5022599;28;20030;-59
2022/08/16 03:55:42;;;;;;;11.70;6.05;;;;;;;27.12;34.10;100456.06;5012092;28;20029;-59
2022/08/16 03:58:07;;;;;;;8.07;5.82;;;;;;;28.35;32.07;100459.50;5012582;28;20030;-57
2022/08/16 04:00:33;;;;;;;7.63;5.90;;;;;;;29.51;30.05;100455.16;5012994;28;20152;-58
2022/08/16 04:03:05;;;;;;;7.43;5.28;;;;;;;30.54;28.51;100466.25;5011759;28;20054;-59
2022/08/16 04:05:32;;;;;;;6.38;5.13;;;;;;;31.64;26.91;100451.63;5012479;28;20048;-57
2022/08/16 04:07:58;;;;;;;9.88;5.75;;;;;;;32.31;25.37;100454.66;5012835;28;20033;-62
2022/08/16 04:10:23;;;;;;;12.13;5.47;;;;;;;33.03;24.65;100458.47;5012055;28;20057;-58
2022/08/16 04:12:49;;;;;;;9.60;5.40;;;;;;;33.52;23.99;100455.97;5025031;28;20036;-58
2022/08/16 04:15:16;;;;;;;7.50;5.10;;;;;;;33.90;23.37;100460.50;5031675;28;20044;-58
2022/08/16 04:17:42;;;;;;;12.30;5.32;;;;;;;34.37;22.69;100455.31;5018520;28;20537;-55
2022/08/16 04:20:09;;;;;;;9.02;5.63;;;;;;;35.03;22.14;100461.50;5012076;28;20084;-56
2022/08/16 04:22:36;;;;;;;11.25;5.50;;;;;;;35.52;21.16;100456.66;5013302;28;20028;-58
2022/08/16 04:25:03;;;;;;;11.30;5.25;;;;;;;35.87;20.46;100464.19;5011561;28;20042;-59
2022/08/16 04:27:28;;;;;;;8.82;4.90;;;;;;;36.40;20.00;100459.44;5011630;28;20030;-57
2022/08/16 04:29:54;;;;;;;12.68;5.05;;;;;;;36.67;20.01;100456.31;5012833;28;20030;-56
2022/08/16 04:32:19;;;;;;;10.23;4.93;;;;;;;37.06;19.15;100468.75;5012377;28;20507;-55
2022/08/16 04:34:46;;;;;;;8.43;5.53;;;;;;;37.11;18.96;100462.28;5010793;28;20037;-59
2022/08/16 04:37:11;;;;;;;9.18;5.38;;;;;;;36.99;19.21;100482.97;5010205;28;20499;-62
2022/08/16 04:39:38;;;;;;;8.63;4.97;;;;;;;37.15;19.11;100480.16;5009965;28;20038;-57
2022/08/16 04:42:05;;;;;;;6.93;5.50;;;;;;;37.15;18.58;100475.38;5009971;28;20021;-59
2022/08/16 04:44:31;;;;;;;7.68;5.25;;;;;;;37.69;18.55;100472.81;5010481;28;20038;-57
2022/08/16 04:46:57;;;;;;;11.48;5.22;;;;;;;38.02;17.69;100448.00;5009733;28;20404;-60
2022/08/16 04:49:23;;;;;;;8.43;4.80;;;;;;;38.47;17.55;100466.59;5010067;28;20034;-59
2022/08/16 04:51:49;;;;;;;10.43;5.32;;;;;;;39.20;16.82;100466.53;5012529;28;20041;-55
2022/08/16 04:54:14;;;;;;;7.47;5.00;;;;;;;39.63;16.45;100476.81;5010978;28;20060;-57
2022/08/16 04:56:40;;;;;;;11.57;5.20;;;;;;;40.00;15.97;100468.69;5011116;28;20116;-55
2022/08/16 04:59:07;;;;;;;10.35;5.00;;;;;;;40.82;15.20;100474.72;5018314;28;20026;-55
2022/08/16 05:01:34;;;;;;;5.22;4.72;;;;;;;40.85;15.00;100481.69;5031365;28;20168;-56
2022/08/16 05:03:59;;;;;;;7.68;4.65;;;;;;;41.17;14.31;100469.50;5030760;28;20096;-57
2022/08/16 05:06:25;;;;;;;11.73;4.78;;;;;;;41.44;14.29;100473.38;5029734;28;20167;-70
2022/08/16 05:08:51;;;;;;;8.13;4.57;;;;;;;42.04;13.79;100479.81;5026170;28;20032;-55
2022/08/16 05:11:19;;;;;;;6.45;4.68;;;;;;;41.93;13.77;100481.22;5011065;28;20119;-57
2022/08/16 05:13:46;;;;;;;6.60;4.72;;;;;;;41.98;13.91;100488.69;5010995;28;20379;-56
2022/08/16 05:16:18;;;;;;;7.57;4.47;;;;;;;42.11;13.41;100493.41;5010693;28;20030;-58
2022/08/16 05:18:44;;;;;;;7.75;4.60;;;;;;;42.52;13.44;100473.78;5011323;28;20026;-56
2022/08/16 05:21:10;;;;;;;4.95;4.22;;;;;;;43.14;12.86;100472.81;5011988;28;20336;-57
2022/08/16 05:23:35;;;;;;;6.05;4.38;;;;;;;43.34;12.62;100464.06;5010858;28;20041;-58
2022/08/16 05:26:01;;;;;;;6.97;4.32;;;;;;;43.60;12.26;100467.69;5009527;28;20026;-57
2022/08/16 05:28:27;;;;;;;5.63;3.95;;;;;;;44.32;12.02;100474.84;5011705;28;20054;-67
2022/08/16 05:30:53;;;;;;;8.45;4.18;;;;;;;45.20;11.40;100477.25;5011097;28;20026;-57
2022/08/16 05:33:20;;;;;;;9.60;4.07;;;;;;;45.93;10.74;100466.63;5012784;28;20044;-57
2022/08/16 05:35:47;;;;;;;4.90;3.92;;;;;;;46.66;10.32;100477.59;5030267;28;20034;-54
2022/08/16 05:38:13;;;;;;;6.68;4.13;;;;;;;47.51;9.73;100477.81;5030843;28;20026;-57
2022/08/16 05:40:39;;;;;;;6.53;4.70;;;;;;;48.28;9.08;100472.22;5028681;28;20049;-59
2022/08/16 05:43:04;;;;;;;4.93;4.40;;;;;;;48.65;8.51;100468.25;5030643;28;20029;-57
2022/08/16 05:45:30;;;;;;;5.10;4.20;;;;;;;48.59;8.53;100464.88;5028986;28;20117;-58
2022/08/16 05:47:55;;;;;;;4.38;3.88;;;;;;;48.31;9.01;100468.63;5013843;28;20048;-58
2022/08/16 05:50:21;;;;;;;7.93;4.68;;;;;;;48.07;9.02;100467.63;5010398;28;20120;-59
2022/08/16 05:52:46;;;;;;;5.82;4.00;;;;;;;47.94;8.96;100468.84;5010680;28;21042;-56
2022/08/16 05:55:12;;;;;;;6.33;4.63;;;;;;;47.61;9.49;100473.59;5010768;28;20430;-61
2022/08/16 05:57:37;;;;;;;6.55;4.50;;;;;;;47.15;9.46;100468.22;5010349;28;20274;-63
2022/08/16 06:00:10;;;;;;;7.43;4.20;;;;;;;46.77;10.04;100475.09;5011863;28;20490;-60
2022/08/16 06:02:36;;;;;;;6.43;4.43;;;;;;;47.16;9.84;100467.03;5010556;28;20060;-61
2022/08/16 06:05:03;;;;;;;6.85;4.30;;;;;;;48.05;9.34;100463.50;5015434;28;20051;-59
2022/08/16 06:07:29;;;;;;;10.85;4.70;;;;;;;48.86;8.83;100450.91;5030082;28;20042;-64
2022/08/16 06:09:57;;;;;;;10.27;4.60;;;;;;;49.08;8.63;100460.75;5030124;28;20100;-60
2022/08/16 06:12:22;;;;;;;6.65;4.47;;;;;;;48.41;9.05;100470.13;5008822;28;20113;-60
2022/08/16 06:14:48;;;;;;;8.32;4.20;;;;;;;48.68;8.76;100462.66;5010471;28;20631;-61
2022/08/16 06:17:15;;;;;;;5.05;4.10;;;;;;;49.28;8.19;100458.75;5010626;28;20080;-60
2022/08/16 06:19:42;;;;;;;6.43;4.30;;;;;;;49.50;8.41;100478.25;5013658;28;20520;-59
2022/08/16 06:22:08;;;;;;;8.52;3.92;;;;;;;49.80;7.79;100452.03;5028382;28;20041;-61
2022/08/16 06:24:34;;;;;;;6.47;4.05;;;;;;;49.85;7.64;100478.16;5014989;28;20030;-60
2022/08/16 06:26:59;;;;;;;5.30;4.22;;;;;;;48.52;8.55;100464.72;5014358;28;20470;-69
2022/08/16 06:29:25;;;;;;;10.07;4.80;;;;;;;48.33;8.26;100457.72;5016677;28;20490;-61
2022/08/16 06:31:50;;;;;;;5.72;4.30;;;;;;;48.39;8.49;100461.13;5013652;28;20409;-60
2022/08/16 06:34:16;;;;;;;7.80;4.38;;;;;;;48.48;8.65;100469.47;5012933;28;20040;-64
2022/08/16 06:36:42;;;;;;;7.55;4.15;;;;;;;48.88;8.43;100471.25;5023798;28;20075;-60
2022/08/16 06:39:07;;;;;;;6.07;4.00;;;;;;;49.29;8.14;100456.72;5023699;28;20399;-58
2022/08/16 06:41:33;;;;;;;8.73;4.10;;;;;;;49.70;7.59;100468.53;5014986;28;20266;-60
2022/08/16 06:43:59;;;;;;;9.10;4.05;;;;;;;49.89;7.61;100451.81;5027127;28;20080;-60
2022/08/16 06:46:33;;;;;;;6.97;4.18;;;;;;;50.57;7.59;100469.25;5033306;28;20064;-60
2022/08/16 06:49:02;;;;;;;;;;;;;;;52.55;6.96;100463.38;5033575;28;20037;-61
2022/08/16 06:51:27;;;;;;;5.22;3.88;;;;;;;52.54;6.15;100468.31;5027019;28;19913;-60
2022/08/16 06:53:53;;;;;;;8.30;4.43;;;;;;;53.27;6.05;100462.16;5024473;28;20046;-60
2022/08/16 06:56:18;;;;;;;5.75;4.03;;;;;;;54.05;5.60;100463.63;5020705;28;20052;-60
2022/08/16 06:58:44;;;;;;;5.05;3.88;;;;;;;54.29;4.96;100489.81;5012907;28;20467;-60
2022/08/16 07:01:09;;;;;;;7.47;4.10;;;;;;;54.19;4.61;100450.50;5011590;28;20022;-67
2022/08/16 07:03:35;;;;;;;17.38;4.55;;;;;;;54.64;4.79;100465.19;5013578;28;20548;-60
2022/08/16 07:06:01;;;;;;;5.28;4.07;;;;;;;54.81;4.72;100448.41;5017893;28;20080;-63
2022/08/16 07:08:26;;;;;;;7.15;4.47;;;;;;;55.32;4.38;100449.00;5023394;28;20489;-58
2022/08/16 07:10:52;;;;;;;6.80;4.40;;;;;;;55.64;4.51;100455.78;5019026;28;20037;-59
2022/08/16 07:13:19;;;;;;;6.40;5.03;;;;;;;55.42;4.43;100449.38;5026800;28;20091;-60
2022/08/16 07:15:45;;;;;;;7.28;4.53;;;;;;;55.67;4.08;100449.22;5025508;28;20104;-61
2022/08/16 07:18:10;;;;;;;7.32;4.78;;;;;;;55.44;4.48;100453.47;5024104;28;20535;-59
2022/08/16 07:20:37;;;;;;;14.77;5.20;;;;;;;55.14;4.47;100454.84;5012950;28;20025;-59
2022/08/16 07:23:05;;;;;;;7.82;4.05;;;;;;;54.81;3.80;100451.25;5020819;28;20033;-59
2022/08/16 07:25:32;;;;;;;9.65;5.45;;;;;;;54.05;4.42;100452.16;5022985;28;20042;-63
2022/08/16 07:27:57;;;;;;;7.43;4.47;;;;;;;53.53;4.72;100456.13;5012864;28;20068;-59
2022/08/16 07:30:23;;;;;;;7.40;4.47;;;;;;;53.93;4.63;100473.41;5012991;28;20066;-66
2022/08/16 07:32:52;;;;;;;5.35;4.07;;;;;;;54.24;4.97;100455.81;5030352;28;20128;-58
2022/08/16 07:35:18;;;;;;;5.65;5.15;;;;;;;54.30;4.60;100434.16;5028311;28;20045;-60
2022/08/16 07:37:43;;;;;;;5.50;4.63;;;;;;;53.85;5.23;100462.38;5029287;28;20045;-59
2022/08/16 07:40:09;;;;;;;5.65;4.93;;;;;;;53.81;4.94;100446.00;5030671;28;20484;-60
2022/08/16 07:42:36;;;;;;;6.88;4.78;;;;;;;54.90;4.62;100448.75;5030449;28;20040;-60
2022/08/16 07:45:05;;;;;;;9.63;4.70;;;;;;;55.71;4.50;100469.31;5031632;28;20030;-58
2022/08/16 07:47:31;;;;;;;5.30;4.78;;;;;;;55.72;3.97;100457.41;5031185;28;20080;-62
2022/08/16 07:49:56;;;;;;;5.97;4.83;;;;;;;55.29;4.27;100449.03;5014313;28;20390;-63
2022/08/16 07:52:22;;;;;;;7.05;4.75;;;;;;;55.36;4.63;100452.72;5024129;28;20453;-62
2022/08/16 07:54:48;;;;;;;5.97;4.60;;;;;;;54.44;4.93;100452.56;5014968;28;20041;-59
2022/08/16 07:57:14;;;;;;;4.72;4.40;;;;;;;53.85;5.37;100443.13;5011685;28;20030;-61
2022/08/16 07:59:39;;;;;;;7.97;5.00;;;;;;;53.66;5.36;100435.72;5024597;28;20046;-59
2022/08/16 08:02:05;;;;;;;5.78;4.82;;;;;;;53.30;5.39;100447.06;5019522;28;20078;-58
2022/08/16 08:04:33;;;;;;;7.15;4.32;;;;;;;51.75;6.27;100465.53;5018024;28;20045;-66
2022/08/16 08:06:58;;;;;;;4.68;3.90;;;;;;;50.78;6.29;100434.59;5022702;28;20104;-57
2022/08/16 08:09:24;;;;;;;4.75;3.28;;;;;;;50.20;7.00;100452.78;5023508;28;20167;-57
2022/08/16 08:11:50;;;;;;;3.92;3.25;;;;;;;49.39;7.33;100424.00;5024679;28;20033;-63
2022/08/16 08:14:15;;;;;;;4.50;3.38;;;;;;;48.41;7.48;100433.22;5027991;28;20029;-58
2022/08/16 08:16:41;;;;;;;3.53;2.78;;;;;;;46.17;9.44;100436.75;5026319;28;20037;-62
2022/08/16 08:19:11;;;;;;;6.57;2.97;;;;;;;43.56;10.87;100438.50;5015669;28;20030;-55
2022/08/16 08:21:39;;;;;;;5.13;2.80;;;;;;;41.11;13.17;100451.06;5022782;28;20041;-59
2022/08/16 08:24:08;;;;;;;6.22;2.88;;;;;;;39.07;14.56;100436.47;5018072;28;20081;-57
2022/08/16 08:26:34;;;;;;;5.95;3.05;;;;;;;37.57;16.20;100442.47;5014708;28;20026;-60
2022/08/16 08:29:00;;;;;;;4.22;2.85;;;;;;;36.45;17.79;100424.00;5011735;28;20034;-60
2022/08/16 08:31:26;;;;;;;9.02;3.35;;;;;;;35.46;18.81;100425.19;5011727;28;20552;-59
2022/08/16 08:33:55;;;;;;;4.70;3.45;;;;;;;34.56;19.45;100441.00;5020724;28;20072;-62
2022/08/16 08:36:27;;;;;;;6.25;3.72;;;;;;;34.10;20.31;100434.00;5030167;28;20127;-61
2022/08/16 08:38:53;;;;;;;6.38;3.72;;;;;;;33.60;20.88;100450.78;5028598;28;20033;-58
2022/08/16 08:41:18;;;;;;;5.53;3.90;;;;;;;32.88;21.57;100438.88;5029939;28;20029;-61
2022/08/16 08:43:45;;;;;;;6.40;3.45;;;;;;;32.44;21.85;100431.38;5012182;28;20033;-61
2022/08/16 08:46:10;;;;;;;8.48;3.92;;;;;;;32.20;22.62;100435.13;5020691;28;20030;-61
2022/08/16 08:48:36;;;;;;;7.05;3.70;;;;;;;31.90;22.99;100416.97;5027414;28;20492;-58
2022/08/16 08:51:03;;;;;;;5.15;3.20;;;;;;;31.68;23.27;100440.91;5023970;28;20480;-66
2022/08/16 08:53:29;;;;;;;5.70;3.83;;;;;;;31.70;23.39;100416.59;5018279;28;20196;-60
2022/08/16 08:55:54;;;;;;;4.47;4.07;;;;;;;31.84;23.51;100442.91;5022616;28;20048;-62
2022/08/16 08:58:20;;;;;;;17.65;4.63;;;;;;;31.86;23.35;100432.41;5021071;28;20053;-59
2022/08/16 09:00:45;;;;;;;5.78;4.05;;;;;;;31.80;23.65;100427.84;5023615;28;20120;-60
2022/08/16 09:03:13;;;;;;;9.10;3.95;;;;;;;31.86;23.71;100424.09;5030529;28;20049;-60
2022/08/16 09:05:40;;;;;;;9.77;4.15;;;;;;;31.90;23.64;100433.56;5018189;28;20073;-60
2022/08/16 09:08:06;;;;;;;8.18;4.00;;;;;;;31.88;24.20;100426.59;5010662;28;20483;-60
2022/08/16 09:10:32;;;;;;;5.82;3.78;;;;;;;31.82;23.54;100424.84;5012324;28;20056;-61
2022/08/16 09:12:58;;;;;;;7.70;4.13;;;;;;;31.77;23.72;100431.13;5013817;28;20120;-60
2022/08/16 09:15:25;;;;;;;4.90;3.40;;;;;;;31.85;23.92;100432.63;5010518;28;20117;-60
2022/08/16 09:17:54;;;;;;;7.70;3.53;;;;;;;31.97;23.38;100402.09;5010971;28;20494;-64
2022/08/16 09:20:20;;;;;;;7.18;4.00;;;;;;;32.20;23.44;100426.81;5017228;28;20067;-61
2022/08/16 09:22:45;;;;;;;5.45;3.80;;;;;;;32.30;23.21;100428.06;5030358;28;20060;-61
2022/08/16 09:25:12;;;;;;;10.65;4.35;;;;;;;32.29;23.48;100424.47;5013052;28;20042;-62
2022/08/16 09:27:38;;;;;;;4.90;3.63;;;;;;;32.17;23.71;100418.19;5014758;28;20030;-62
2022/08/16 09:30:05;;;;;;;4.75;3.63;;;;;;;32.09;23.63;100444.41;5017570;28;20026;-60
2022/08/16 09:32:30;;;;;;;7.15;4.28;;;;;;;31.91;23.89;100424.19;5030545;28;20478;-56
2022/08/16 09:34:57;;;;;;;6.28;4.07;;;;;;;31.72;24.32;100429.09;5028152;28;20032;-58
2022/08/16 09:37:23;;;;;;;8.20;4.13;;;;;;;31.76;23.82;100405.38;5028088;28;20030;-57
2022/08/16 09:39:48;;;;;;;7.50;4.30;;;;;;;31.70;24.58;100428.47;5029293;28;20052;-59
2022/08/16 09:42:14;;;;;;;7.00;4.10;;;;;;;31.47;24.73;100401.81;5029920;28;20061;-57
2022/08/16 09:44:40;;;;;;;11.80;4.13;;;;;;;31.28;24.92;100426.09;5026979;28;20378;-64
2022/08/16 09:47:06;;;;;;;8.88;4.18;;;;;;;31.05;25.34;100431.41;5009987;28;20489;-61
2022/08/16 09:49:31;;;;;;;11.05;4.40;;;;;;;30.85;25.73;100411.66;5029154;28;20104;-61
2022/08/16 09:51:57;;;;;;;7.13;3.95;;;;;;;30.96;25.12;100399.72;5025095;28;20693;-60
2022/08/16 09:54:26;;;;;;;7.22;4.07;;;;;;;31.12;25.17;100405.56;5010341;28;20038;-61
2022/08/16 09:56:51;;;;;;;7.03;3.75;;;;;;;31.21;24.81;100407.69;5011956;28;20116;-60
2022/08/16 09:59:18;;;;;;;4.68;4.15;;;;;;;31.39;24.79;100416.06;5029089;28;20056;-59
2022/08/16 10:01:46;;;;;;;6.15;4.28;;;;;;;31.37;24.44;100399.69;5022630;28;20168;-58
2022/08/16 10:04:13;;;;;;;7.65;4.43;;;;;;;31.14;25.10;100406.16;5013724;28;20068;-60
2022/08/16 10:06:39;;;;;;;5.82;4.00;;;;;;;31.08;25.05;100397.75;5031186;28;20060;-59
2022/08/16 10:09:07;;;;;;;9.73;3.90;;;;;;;31.12;24.88;100405.56;5032776;28;20064;-60
2022/08/16 10:14:21;;;;;;;4.80;4.28;;;;;;;31.00;24.74;100408.38;5033727;28;20103;-60
2022/08/16 10:16:47;;;;;;;6.93;3.80;;;;;;;30.73;24.69;100406.16;5030920;28;20120;-60
2022/08/16 10:19:14;;;;;;;6.13;4.22;;;;;;;30.52;24.94;100414.00;5014077;28;20104;-63
2022/08/16 10:21:40;;;;;;;8.98;4.22;;;;;;;30.35;25.44;100409.22;5031268;28;20029;-61
2022/08/16 10:24:07;;;;;;;5.22;3.60;;;;;;;30.13;26.29;100400.69;5033353;28;20044;-61
2022/08/16 10:26:33;;;;;;;5.28;4.55;;;;;;;30.12;26.19;100409.22;5031747;28;20482;-61
2022/08/16 10:28:59;;;;;;;8.52;4.20;;;;;;;30.25;25.26;100417.25;5020699;28;20049;-61
2022/08/16 10:31:25;;;;;;;9.95;4.80;;;;;;;30.12;25.36;100406.47;5021071;28;20037;-61
2022/08/16 10:33:51;;;;;;;8.40;5.18;;;;;;;29.81;25.96;100403.75;5020107;28;20487;-62
2022/08/16 10:36:17;;;;;;;10.40;4.93;;;;;;;29.85;25.93;100417.94;5033553;28;20496;-60
2022/08/16 10:38:42;;;;;;;4.45;3.92;;;;;;;29.91;25.99;100404.03;5032893;28;20091;-61
2022/08/16 10:41:09;;;;;;;10.57;4.15;;;;;;;29.84;25.92;100397.75;5026045;28;20054;-62
2022/08/16 10:43:36;;;;;;;7.65;4.40;;;;;;;29.98;25.81;100400.31;5013739;28;20045;-61
2022/08/16 10:46:04;;;;;;;7.03;4.55;;;;;;;30.10;25.77;100426.00;5027933;28;20030;-59
2022/08/16 10:48:30;;;;;;;5.63;4.07;;;;;;;30.14;25.85;100407.88;5029479;28;20064;-66
2022/08/16 10:50:57;;;;;;;5.05;3.97;;;;;;;30.19;25.06;100399.75;5030392;28;20421;-62
2022/08/16 10:53:25;;;;;;;6.78;3.97;;;;;;;30.38;25.59;100401.53;5032069;28;20065;-60
2022/08/16 10:55:50;;;;;;;4.85;4.20;;;;;;;30.38;25.46;100390.47;5025240;28;20025;-61
2022/08/16 10:58:16;;;;;;;9.50;4.53;;;;;;;30.38;25.24;100385.78;5030090;28;20516;-61
2022/08/16 11:00:42;;;;;;;6.78;3.83;;;;;;;30.51;25.08;100388.28;5032874;28;20049;-60
2022/08/16 11:03:08;;;;;;;4.38;3.88;;;;;;;30.68;24.82;100397.75;5032463;28;20516;-57
2022/08/16 11:05:36;;;;;;;4.35;3.95;;;;;;;30.78;25.10;100385.00;5029707;28;20049;-60
2022/08/16 11:08:06;;;;;;;6.10;4.10;;;;;;;30.97;24.93;100372.91;5031548;28;20117;-59
2022/08/16 11:10:36;;;;;;;7.53;4.47;;;;;;;31.07;24.56;100368.41;5032549;28;20091;-59
2022/08/16 11:13:05;;;;;;;5.30;4.18;;;;;;;31.03;24.80;100392.13;5029945;28;20033;-60
2022/08/16 11:15:31;;;;;;;5.90;4.15;;;;;;;30.85;24.84;100381.25;5024350;28;20414;-60
2022/08/16 11:17:57;;;;;;;4.72;4.15;;;;;;;30.51;24.83;100352.38;5032624;28;20033;-61
2022/08/16 11:20:23;;;;;;;6.72;4.18;;;;;;;30.59;25.41;100400.88;5020963;28;20144;-60
2022/08/16 11:22:49;;;;;;;4.50;4.10;;;;;;;30.59;25.15;100386.22;5012523;28;20493;-61
2022/08/16 11:25:19;;;;;;;5.70;3.80;;;;;;;30.41;25.21;100345.78;5014339;28;20096;-59
2022/08/16 11:27:44;;;;;;;5.47;4.35;;;;;;;30.65;24.95;100371.47;5017694;28;20038;-60